Time;durP1;ratioP1;P1;durP2;ratioP2;P2;SDS_P1;SDS_P2;PMS_P1;PMS_P2;Temp;Humidity;BMP_temperature;BMP_pressure;BME280_temperature;BME280_humidity;BME280_pressure;Samples;Min_cycle;Max_cycle;Signal;HPM_P1;HPM_P2
2023/02/12 00:00:42;;;;;;;;;;;7.60;99.90;;;;;;5066413;28;19925;-72
2023/02/12 00:03:09;;;;;;;;;;;7.60;99.90;;;;;;5065017;28;20002;-72
2023/02/12 00:05:37;;;;;;;;;;;7.60;99.90;;;;;;5067387;28;19931;-72
2023/02/12 00:08:04;;;;;;;;;;;7.60;99.90;;;;;;5059956;28;19931;-71
2023/02/12 00:10:31;;;;;;;;;;;7.60;99.90;;;;;;5058139;28;19924;-73
2023/02/12 00:12:57;;;;;;;;;;;7.50;99.90;;;;;;5070072;28;20371;-72
2023/02/12 00:15:25;;;;;;;;;;;7.60;99.90;;;;;;5068199;28;19924;-72
2023/02/12 00:17:52;;;;;;;;;;;7.50;99.90;;;;;;5069884;28;19933;-72
2023/02/12 00:20:19;;;;;;;;;;;7.50;99.90;;;;;;5068770;28;20525;-72
2023/02/12 00:22:45;;;;;;;;;;;7.50;99.90;;;;;;5069656;28;20441;-72
2023/02/12 00:25:12;;;;;;;;;;;7.50;99.90;;;;;;5066124;28;20379;-71
2023/02/12 00:27:39;;;;;;;;;;;7.50;99.90;;;;;;5070551;28;19924;-72
2023/02/12 00:30:06;;;;;;;;;;;7.50;99.90;;;;;;5064124;28;19928;-71
2023/02/12 00:32:36;;;;;;;;;;;7.50;99.90;;;;;;5069745;28;19924;-71
2023/02/12 00:35:02;;;;;;;;;;;7.50;99.90;;;;;;5066699;28;19932;-71
2023/02/12 00:37:29;;;;;;;;;;;7.60;99.90;;;;;;5069741;28;19924;-71
2023/02/12 00:39:56;;;;;;;;;;;7.50;99.90;;;;;;5066792;28;19928;-72
2023/02/12 00:42:22;;;;;;;;;;;7.50;99.90;;;;;;5070813;28;20011;-72
2023/02/12 00:44:49;;;;;;;;;;;7.50;99.90;;;;;;5067846;28;19932;-72
2023/02/12 00:47:16;;;;;;;;;;;7.50;99.90;;;;;;5069757;28;19990;-72
2023/02/12 00:49:44;;;;;;;;;;;7.40;99.90;;;;;;5068352;28;19932;-71
2023/02/12 00:52:11;;;;;;;;;;;7.40;99.90;;;;;;5070866;28;21722;-70
2023/02/12 00:54:38;;;;;;;;;;;7.40;99.90;;;;;;5067408;28;20035;-70
2023/02/12 00:57:04;;;;;;;;;;;7.40;99.90;;;;;;5070803;28;19924;-71
2023/02/12 00:59:31;;;;;;;;;;;7.30;99.90;;;;;;5068431;28;20011;-70
2023/02/12 01:01:58;;;;;;;;;;;7.30;99.90;;;;;;5069975;28;20811;-70
2023/02/12 01:04:25;;;;;;;;;;;7.30;99.90;;;;;;5068327;28;20011;-70
2023/02/12 01:06:53;;;;;;;;;;;7.30;99.90;;;;;;5070170;28;19971;-70
2023/02/12 01:09:19;;;;;;;;;;;7.30;99.90;;;;;;5066262;28;20388;-71
2023/02/12 01:11:46;;;;;;;;;;;7.30;99.90;;;;;;5068194;28;20411;-71
2023/02/12 01:14:13;;;;;;;;;;;7.30;99.90;;;;;;5068435;28;20306;-72
2023/02/12 01:16:39;;;;;;;;;;;7.30;99.90;;;;;;5069169;28;20003;-71
2023/02/12 01:19:06;;;;;;;;;;;7.30;99.90;;;;;;5067628;28;20027;-71
2023/02/12 01:21:34;;;;;;;;;;;7.30;99.90;;;;;;5068709;28;19924;-71
2023/02/12 01:24:02;;;;;;;;;;;7.40;99.90;;;;;;5067541;28;19978;-71
2023/02/12 01:26:29;;;;;;;;;;;7.40;99.90;;;;;;5067310;28;20027;-71
2023/02/12 01:28:56;;;;;;;;;;;7.40;99.90;;;;;;5070494;28;19938;-71
2023/02/12 01:31:24;;;;;;;;;;;7.30;99.90;;;;;;5075214;28;20021;-73
2023/02/12 01:33:52;;;;;;;;;;;7.30;99.90;;;;;;5067109;28;19968;-71
2023/02/12 01:36:19;;;;;;;;;;;7.30;99.90;;;;;;5070032;28;19930;-70
2023/02/12 01:38:45;;;;;;;;;;;7.30;99.90;;;;;;5069537;28;19931;-70
2023/02/12 01:41:14;;;;;;;;;;;7.30;99.90;;;;;;5067728;28;19932;-70
2023/02/12 01:43:41;;;;;;;;;;;7.20;99.90;;;;;;5068619;28;19924;-72
2023/02/12 01:46:09;;;;;;;;;;;7.10;99.90;;;;;;5070180;28;19925;-71
2023/02/12 01:48:37;;;;;;;;;;;7.10;99.90;;;;;;5066787;28;19978;-70
2023/02/12 01:51:04;;;;;;;;;;;7.10;99.90;;;;;;5070114;28;20025;-70
2023/02/12 01:53:33;;;;;;;;;;;7.10;99.90;;;;;;5068456;28;19964;-70
2023/02/12 01:56:01;;;;;;;;;;;7.10;99.90;;;;;;5066136;28;20007;-71
2023/02/12 01:58:33;;;;;;;;;;;7.10;99.90;;;;;;5068860;28;19932;-71
2023/02/12 02:01:01;;;;;;;;;;;7.10;99.90;;;;;;5067811;28;19924;-71
2023/02/12 02:03:28;;;;;;;;;;;7.10;99.90;;;;;;5067581;28;20280;-71
2023/02/12 02:05:56;;;;;;;;;;;7.10;99.90;;;;;;5067990;28;19924;-71
2023/02/12 02:08:23;;;;;;;;;;;7.10;99.90;;;;;;5067971;28;19924;-72
2023/02/12 02:10:50;;;;;;;;;;;7.20;99.90;;;;;;5065692;28;19929;-71
2023/02/12 02:16:06;;;;;;;;;;;7.20;99.90;;;;;;5063901;28;19932;-71
2023/02/12 02:18:36;;;;;;;;;;;7.10;99.90;;;;;;5069142;28;19925;-71
2023/02/12 02:21:18;;;;;;;;;;;7.20;99.90;;;;;;5068785;28;20300;-72
2023/02/12 02:24:00;;;;;;;;;;;7.20;99.90;;;;;;5065418;28;20428;-72
2023/02/12 02:26:41;;;;;;;;;;;7.10;99.90;;;;;;5062062;28;19928;-72
2023/02/12 02:29:20;;;;;;;;;;;7.10;99.90;;;;;;5020314;28;20022;-72
2023/02/12 02:31:51;;;;;;;;;;;7.10;99.90;;;;;;5066199;28;19928;-71
2023/02/12 02:34:20;;;;;;;;;;;7.10;99.90;;;;;;5062466;28;19947;-70
2023/02/12 02:36:50;;;;;;;;;;;7.10;99.90;;;;;;5069277;28;19925;-71
2023/02/12 02:39:19;;;;;;;;;;;7.10;99.90;;;;;;5062209;28;19971;-69
2023/02/12 02:41:48;;;;;;;;;;;7.20;99.90;;;;;;5068273;28;19946;-69
2023/02/12 02:44:17;;;;;;;;;;;7.20;99.90;;;;;;5061642;28;19929;-70
2023/02/12 02:46:45;;;;;;;;;;;7.20;99.90;;;;;;5070970;28;19976;-70
2023/02/12 02:49:17;;;;;;;;;;;7.10;99.90;;;;;;5069315;28;19931;-71
2023/02/12 02:51:45;;;;;;;;;;;7.10;99.90;;;;;;5068606;28;19946;-71
2023/02/12 02:54:13;;;;;;;;;;;7.10;99.90;;;;;;5069637;28;19930;-71
2023/02/12 02:56:43;;;;;;;;;;;7.00;99.90;;;;;;5066924;28;19925;-71
2023/02/12 02:59:11;;;;;;;;;;;7.00;99.90;;;;;;5067700;28;19999;-71
2023/02/12 03:01:40;;;;;;;;;;;7.00;99.90;;;;;;5068899;28;19924;-72
2023/02/12 03:04:08;;;;;;;;;;;7.00;99.90;;;;;;5067945;28;19938;-72
2023/02/12 03:06:43;;;;;;;;;;;7.00;99.90;;;;;;5070359;28;20035;-72
2023/02/12 03:09:15;;;;;;;;;;;7.00;99.90;;;;;;5056434;28;19931;-73
2023/02/12 03:11:42;;;;;;;;;;;7.00;99.90;;;;;;5064689;28;20387;-72
2023/02/12 03:14:13;;;;;;;;;;;7.10;99.90;;;;;;5069750;28;19924;-72
2023/02/12 03:16:41;;;;;;;;;;;7.00;99.90;;;;;;5070963;28;20011;-71
2023/02/12 03:19:10;;;;;;;;;;;7.10;99.90;;;;;;5069663;28;20372;-72
2023/02/12 03:21:42;;;;;;;;;;;7.10;99.90;;;;;;5069809;28;20421;-72
2023/02/12 03:24:11;;;;;;;;;;;7.20;99.90;;;;;;5065338;28;20011;-72
2023/02/12 03:26:40;;;;;;;;;;;7.20;99.90;;;;;;5067195;28;20015;-71
2023/02/12 03:29:07;;;;;;;;;;;7.10;99.90;;;;;;5067317;28;20023;-71
2023/02/12 03:31:37;;;;;;;;;;;7.10;99.90;;;;;;5069880;28;19931;-72
2023/02/12 03:34:08;;;;;;;;;;;7.10;99.90;;;;;;5066959;28;20015;-72
2023/02/12 03:36:39;;;;;;;;;;;7.10;99.90;;;;;;5067254;28;19958;-71
2023/02/12 03:39:11;;;;;;;;;;;7.10;99.90;;;;;;5066507;28;19925;-70
2023/02/12 03:41:41;;;;;;;;;;;7.10;99.90;;;;;;5065849;28;20015;-70
2023/02/12 03:44:11;;;;;;;;;;;7.10;99.90;;;;;;5067783;28;19931;-71
2023/02/12 03:46:41;;;;;;;;;;;7.10;99.90;;;;;;5069663;28;19928;-70
2023/02/12 03:49:10;;;;;;;;;;;7.00;99.90;;;;;;5071399;28;20007;-71
2023/02/12 03:51:38;;;;;;;;;;;7.00;99.90;;;;;;5068279;28;19930;-71
2023/02/12 03:54:05;;;;;;;;;;;7.00;99.90;;;;;;5071010;28;19924;-71
2023/02/12 03:56:37;;;;;;;;;;;7.00;99.90;;;;;;5068490;28;19928;-71
2023/02/12 03:59:03;;;;;;;;;;;7.00;99.90;;;;;;5071740;28;19935;-70
2023/02/12 04:01:31;;;;;;;;;;;7.00;99.90;;;;;;5071522;28;19924;-72
2023/02/12 04:03:58;;;;;;;;;;;7.00;99.90;;;;;;5060323;28;19925;-72
2023/02/12 04:06:25;;;;;;;;;;;7.00;99.90;;;;;;5073091;28;19925;-71
2023/02/12 04:08:53;;;;;;;;;;;7.10;99.90;;;;;;5072424;28;19933;-72
2023/02/12 04:11:24;;;;;;;;;;;7.10;99.90;;;;;;5069645;28;19928;-71
2023/02/12 04:13:56;;;;;;;;;;;7.10;99.90;;;;;;5072482;28;20023;-70
2023/02/12 04:16:25;;;;;;;;;;;7.10;99.90;;;;;;5072121;28;19928;-72
2023/02/12 04:18:53;;;;;;;;;;;7.10;99.90;;;;;;5072039;28;19928;-71
2023/02/12 04:21:24;;;;;;;;;;;7.10;99.90;;;;;;5070456;28;19931;-71
2023/02/12 04:23:59;;;;;;;;;;;7.10;99.90;;;;;;5070830;28;19925;-72
2023/02/12 04:26:29;;;;;;;;;;;7.20;99.90;;;;;;5061711;28;19924;-71
2023/02/12 04:29:02;;;;;;;;;;;7.20;99.90;;;;;;5071126;28;20447;-71
2023/02/12 04:31:30;;;;;;;;;;;7.30;99.90;;;;;;5072350;28;19947;-71
2023/02/12 04:34:05;;;;;;;;;;;7.30;99.90;;;;;;5072352;28;19928;-71
2023/02/12 04:36:33;;;;;;;;;;;7.40;99.90;;;;;;5068102;28;19924;-69
2023/02/12 04:39:01;;;;;;;;;;;7.40;99.90;;;;;;5069334;28;19925;-71
2023/02/12 04:41:28;;;;;;;;;;;7.30;99.90;;;;;;5064884;28;20019;-71
2023/02/12 04:43:55;;;;;;;;;;;7.20;99.90;;;;;;5064919;28;19963;-70
2023/02/12 04:46:23;;;;;;;;;;;7.10;99.90;;;;;;5071074;28;19931;-70
2023/02/12 04:48:51;;;;;;;;;;;7.10;99.90;;;;;;5066463;28;19924;-71
2023/02/12 04:51:19;;;;;;;;;;;7.10;99.90;;;;;;5057320;28;19925;-71
2023/02/12 04:53:45;;;;;;;;;;;7.10;99.90;;;;;;5068328;28;19924;-71
2023/02/12 04:56:12;;;;;;;;;;;7.10;99.90;;;;;;5065289;28;19948;-71
2023/02/12 04:58:39;;;;;;;;;;;7.10;99.90;;;;;;5064889;28;19931;-70
2023/02/12 05:01:06;;;;;;;;;;;7.10;99.90;;;;;;5068600;28;19924;-70
2023/02/12 05:03:34;;;;;;;;;;;7.10;99.90;;;;;;5073548;28;19933;-70
2023/02/12 05:06:02;;;;;;;;;;;7.00;99.90;;;;;;5072408;28;20003;-71
2023/02/12 05:08:29;;;;;;;;;;;7.00;99.90;;;;;;5072431;28;20028;-71
2023/02/12 05:10:55;;;;;;;;;;;7.00;99.90;;;;;;5067520;28;20040;-70
2023/02/12 05:13:22;;;;;;;;;;;7.00;99.90;;;;;;5071146;28;19925;-70
2023/02/12 05:15:49;;;;;;;;;;;7.00;99.90;;;;;;5066691;28;19931;-72
2023/02/12 05:18:15;;;;;;;;;;;6.90;99.90;;;;;;5071930;28;19935;-69
2023/02/12 05:20:43;;;;;;;;;;;6.80;99.90;;;;;;5069644;28;19931;-69
2023/02/12 05:23:10;;;;;;;;;;;6.90;99.90;;;;;;5070324;28;19935;-69
2023/02/12 05:25:37;;;;;;;;;;;6.90;99.90;;;;;;5067645;28;20019;-69
2023/02/12 05:28:03;;;;;;;;;;;6.90;99.90;;;;;;5071769;28;19931;-70
2023/02/12 05:30:30;;;;;;;;;;;6.90;99.90;;;;;;5069237;28;19924;-70
2023/02/12 05:32:57;;;;;;;;;;;6.90;99.90;;;;;;5070322;28;20014;-71
2023/02/12 05:35:23;;;;;;;;;;;6.90;99.90;;;;;;5056498;28;20675;-70
2023/02/12 05:37:51;;;;;;;;;;;6.90;99.90;;;;;;5068463;28;20019;-70
2023/02/12 05:40:18;;;;;;;;;;;6.90;99.90;;;;;;5068273;28;19925;-70
2023/02/12 05:42:45;;;;;;;;;;;6.90;99.90;;;;;;5068867;28;19931;-70
2023/02/12 05:45:12;;;;;;;;;;;6.90;99.90;;;;;;5070077;28;19931;-69
2023/02/12 05:47:38;;;;;;;;;;;7.00;99.90;;;;;;5071135;28;20015;-70
2023/02/12 05:50:05;;;;;;;;;;;7.00;99.90;;;;;;5069390;28;19924;-70
2023/02/12 05:52:33;;;;;;;;;;;7.00;99.90;;;;;;5067074;28;20026;-70
2023/02/12 05:55:01;;;;;;;;;;;6.90;99.90;;;;;;5067159;28;19925;-70
2023/02/12 05:57:28;;;;;;;;;;;6.90;99.90;;;;;;5070525;28;19939;-70
2023/02/12 05:59:54;;;;;;;;;;;6.90;99.90;;;;;;5064747;28;20593;-70
2023/02/12 06:02:21;;;;;;;;;;;6.90;99.90;;;;;;5068968;28;19987;-70
2023/02/12 06:04:48;;;;;;;;;;;6.90;99.90;;;;;;5068562;28;20398;-71
2023/02/12 06:07:14;;;;;;;;;;;6.90;99.90;;;;;;5070080;28;20454;-69
2023/02/12 06:09:41;;;;;;;;;;;6.80;99.90;;;;;;5065003;28;19978;-70
2023/02/12 06:12:09;;;;;;;;;;;6.70;99.90;;;;;;5069202;28;20500;-70
2023/02/12 06:14:35;;;;;;;;;;;6.80;99.90;;;;;;5068831;28;19928;-70
2023/02/12 06:17:02;;;;;;;;;;;6.70;99.90;;;;;;5067151;28;20015;-70
2023/02/12 06:19:29;;;;;;;;;;;6.70;99.90;;;;;;5065174;28;19930;-70
2023/02/12 06:21:55;;;;;;;;;;;6.80;99.90;;;;;;5071185;28;19930;-70
2023/02/12 06:24:22;;;;;;;;;;;6.80;99.90;;;;;;5066134;28;19972;-71
2023/02/12 06:26:49;;;;;;;;;;;6.80;99.90;;;;;;5065259;28;19930;-71
2023/02/12 06:29:17;;;;;;;;;;;6.90;99.90;;;;;;5068214;28;19925;-70
2023/02/12 06:31:43;;;;;;;;;;;6.90;99.90;;;;;;5069698;28;19925;-70
2023/02/12 06:34:11;;;;;;;;;;;6.90;99.90;;;;;;5067719;28;19977;-70
2023/02/12 06:36:38;;;;;;;;;;;6.90;99.90;;;;;;5067897;28;19968;-70
2023/02/12 06:39:04;;;;;;;;;;;6.90;99.90;;;;;;5067695;28;19925;-70
2023/02/12 06:41:31;;;;;;;;;;;6.80;99.90;;;;;;5066732;28;20023;-70
2023/02/12 06:43:58;;;;;;;;;;;6.80;99.90;;;;;;5066338;28;19939;-70
2023/02/12 06:46:26;;;;;;;;;;;6.90;99.90;;;;;;5068565;28;19930;-70
2023/02/12 06:48:53;;;;;;;;;;;6.90;99.90;;;;;;5068024;28;20023;-70
2023/02/12 06:51:20;;;;;;;;;;;6.90;99.90;;;;;;5070412;28;20410;-70
2023/02/12 06:53:47;;;;;;;;;;;6.90;99.90;;;;;;5070130;28;19978;-70
2023/02/12 06:56:14;;;;;;;;;;;6.90;99.90;;;;;;5066058;28;20352;-71
2023/02/12 06:58:41;;;;;;;;;;;6.90;99.90;;;;;;5067641;28;20034;-72
2023/02/12 07:01:11;;;;;;;;;;;6.90;99.90;;;;;;5069275;28;19993;-71
2023/02/12 07:03:41;;;;;;;;;;;6.90;99.90;;;;;;5067949;28;19928;-72
2023/02/12 07:06:08;;;;;;;;;;;6.90;99.90;;;;;;5067310;28;20011;-71
2023/02/12 07:08:35;;;;;;;;;;;6.80;99.90;;;;;;5065843;28;20350;-71
2023/02/12 07:11:02;;;;;;;;;;;6.70;99.90;;;;;;5066206;28;19925;-72
2023/02/12 07:13:28;;;;;;;;;;;6.70;99.90;;;;;;5068494;28;19931;-71
2023/02/12 07:15:55;;;;;;;;;;;6.70;99.90;;;;;;5063755;28;19942;-71
2023/02/12 07:18:22;;;;;;;;;;;6.70;99.90;;;;;;5062476;28;20015;-72
2023/02/12 07:20:50;;;;;;;;;;;6.70;99.90;;;;;;5066646;28;19924;-71
2023/02/12 07:23:16;;;;;;;;;;;6.80;99.90;;;;;;5072012;28;20212;-71
2023/02/12 07:25:43;;;;;;;;;;;6.80;99.90;;;;;;5064677;28;19929;-72
2023/02/12 07:28:09;;;;;;;;;;;6.80;99.90;;;;;;5073157;28;19924;-71
2023/02/12 07:30:37;;;;;;;;;;;6.90;99.90;;;;;;5072158;28;19929;-72
2023/02/12 07:33:04;;;;;;;;;;;6.90;99.90;;;;;;5072513;28;19971;-70
2023/02/12 07:35:31;;;;;;;;;;;6.90;99.90;;;;;;5067244;28;19963;-72
2023/02/12 07:37:59;;;;;;;;;;;6.90;99.90;;;;;;5071771;28;19932;-71
2023/02/12 07:40:26;;;;;;;;;;;6.90;99.90;;;;;;5071212;28;19925;-71
2023/02/12 07:42:54;;;;;;;;;;;6.90;99.90;;;;;;5072526;28;20314;-71
2023/02/12 07:45:21;;;;;;;;;;;6.90;99.90;;;;;;5069016;28;19929;-71
2023/02/12 07:47:47;;;;;;;;;;;6.90;99.90;;;;;;5056882;28;20016;-71
2023/02/12 07:50:14;;;;;;;;;;;6.90;99.90;;;;;;5064592;28;20019;-71
2023/02/12 07:52:41;;;;;;;;;;;6.90;99.90;;;;;;5071871;28;20305;-71
2023/02/12 07:55:09;;;;;;;;;;;7.00;99.90;;;;;;5071589;28;20019;-71
2023/02/12 07:57:36;;;;;;;;;;;7.00;99.90;;;;;;5070163;28;19970;-72
2023/02/12 08:00:03;;;;;;;;;;;7.00;99.90;;;;;;5071732;28;20016;-72
2023/02/12 08:02:30;;;;;;;;;;;7.00;99.90;;;;;;5070646;28;19967;-71
2023/02/12 08:04:57;;;;;;;;;;;7.00;99.90;;;;;;5072259;28;19974;-71
2023/02/12 08:07:23;;;;;;;;;;;6.90;99.90;;;;;;5072658;28;19925;-71
2023/02/12 08:09:50;;;;;;;;;;;6.90;99.90;;;;;;5068662;28;20026;-72
2023/02/12 08:12:18;;;;;;;;;;;7.00;99.90;;;;;;5069779;28;20023;-72
2023/02/12 08:14:45;;;;;;;;;;;7.10;99.90;;;;;;5071952;28;19978;-72
2023/02/12 08:17:12;;;;;;;;;;;7.10;99.90;;;;;;5072346;28;19924;-72
2023/02/12 08:19:38;;;;;;;;;;;7.10;99.90;;;;;;5071404;28;20011;-72
2023/02/12 08:22:06;;;;;;;;;;;7.10;99.90;;;;;;5071796;28;19925;-72
2023/02/12 08:24:32;;;;;;;;;;;7.00;99.90;;;;;;5068701;28;19924;-72
2023/02/12 08:26:59;;;;;;;;;;;7.00;99.90;;;;;;5068226;28;19932;-72
2023/02/12 08:29:28;;;;;;;;;;;7.10;99.90;;;;;;5068248;28;19971;-72
2023/02/12 08:31:56;;;;;;;;;;;7.20;99.90;;;;;;5070739;28;19958;-72
2023/02/12 08:34:24;;;;;;;;;;;7.30;99.90;;;;;;5068896;28;20362;-72
2023/02/12 08:36:52;;;;;;;;;;;7.30;99.90;;;;;;5063498;28;19939;-72
2023/02/12 08:39:20;;;;;;;;;;;7.30;99.90;;;;;;5062933;28;19924;-73
2023/02/12 08:41:47;;;;;;;;;;;7.30;99.90;;;;;;5063444;28;19931;-72
2023/02/12 08:44:15;;;;;;;;;;;7.40;99.90;;;;;;5065462;28;19931;-72
2023/02/12 08:46:45;;;;;;;;;;;7.50;99.90;;;;;;5066600;28;20015;-72
2023/02/12 08:49:12;;;;;;;;;;;7.60;99.90;;;;;;5067469;28;19964;-73
2023/02/12 08:51:40;;;;;;;;;;;7.40;99.90;;;;;;5070350;28;20364;-71
2023/02/12 08:54:07;;;;;;;;;;;7.40;99.90;;;;;;5066562;28;19975;-76
2023/02/12 08:56:34;;;;;;;;;;;7.50;99.90;;;;;;5070771;28;19955;-75
2023/02/12 08:59:02;;;;;;;;;;;7.50;99.90;;;;;;5069209;28;20473;-76
2023/02/12 09:01:30;;;;;;;;;;;7.60;99.90;;;;;;5058709;28;19925;-75
2023/02/12 09:03:58;;;;;;;;;;;7.60;99.90;;;;;;5064299;28;20027;-76
2023/02/12 09:06:25;;;;;;;;;;;7.70;99.90;;;;;;5063037;28;20020;-75
2023/02/12 09:08:53;;;;;;;;;;;7.70;99.90;;;;;;5066646;28;19964;-75
2023/02/12 09:11:23;;;;;;;;;;;7.80;99.90;;;;;;5067297;28;19983;-75
2023/02/12 09:13:50;;;;;;;;;;;7.80;99.90;;;;;;5066148;28;19924;-76
2023/02/12 09:16:16;;;;;;;;;;;7.90;99.90;;;;;;5063347;28;19925;-75
2023/02/12 09:18:44;;;;;;;;;;;7.80;99.90;;;;;;5062033;28;19928;-74
2023/02/12 09:21:13;;;;;;;;;;;7.90;99.90;;;;;;5065923;28;20564;-75
2023/02/12 09:23:40;;;;;;;;;;;8.00;99.90;;;;;;5069206;28;19929;-76
2023/02/12 09:26:07;;;;;;;;;;;8.00;99.90;;;;;;5063721;28;19924;-75
2023/02/12 09:28:34;;;;;;;;;;;8.00;99.90;;;;;;5061734;28;19928;-75
2023/02/12 09:31:04;;;;;;;;;;;8.10;99.90;;;;;;5067789;28;19928;-76
2023/02/12 09:33:31;;;;;;;;;;;8.20;99.90;;;;;;5063414;28;19955;-72
2023/02/12 09:36:00;;;;;;;;;;;8.20;99.90;;;;;;5069212;28;19932;-74
2023/02/12 09:38:29;;;;;;;;;;;8.20;99.90;;;;;;5065516;28;20287;-74
2023/02/12 09:41:08;;;;;;;;;;;8.30;99.90;;;;;;5063327;28;19929;-74
2023/02/12 09:43:40;;;;;;;;;;;8.40;99.90;;;;;;5067811;28;20269;-73
2023/02/12 09:46:13;;;;;;;;;;;8.40;99.90;;;;;;5066130;28;19932;-73
2023/02/12 09:48:48;;;;;;;;;;;8.40;99.90;;;;;;5067863;28;19991;-73
2023/02/12 09:51:14;;;;;;;;;;;8.30;99.90;;;;;;5064684;28;20035;-74
2023/02/12 09:53:45;;;;;;;;;;;8.40;99.90;;;;;;5066683;28;20015;-72
2023/02/12 09:56:13;;;;;;;;;;;8.40;99.90;;;;;;5064934;28;19932;-73
2023/02/12 09:58:42;;;;;;;;;;;8.40;99.90;;;;;;5065982;28;20055;-73
2023/02/12 10:01:11;;;;;;;;;;;8.40;99.90;;;;;;5064331;28;20422;-72
2023/02/12 10:03:38;;;;;;;;;;;8.50;99.90;;;;;;5067318;28;19928;-72
2023/02/12 10:06:06;;;;;;;;;;;8.60;99.90;;;;;;5063699;28;20023;-73
2023/02/12 10:08:53;;;;;;;;;;;8.50;99.90;;;;;;5067164;28;20380;-74
2023/02/12 10:11:25;;;;;;;;;;;8.30;99.90;;;;;;5067064;28;19931;-74
2023/02/12 10:13:56;;;;;;;;;;;8.30;99.90;;;;;;5066451;28;19924;-73
2023/02/12 10:16:32;;;;;;;;;;;8.20;99.90;;;;;;5069128;28;20298;-73
2023/02/12 10:19:05;;;;;;;;;;;8.20;99.90;;;;;;5065216;28;19929;-74
2023/02/12 10:21:36;;;;;;;;;;;8.30;99.90;;;;;;5066826;28;19935;-73
2023/02/12 10:24:12;;;;;;;;;;;8.30;99.90;;;;;;5066564;28;19931;-72
2023/02/12 10:26:41;;;;;;;;;;;8.20;99.90;;;;;;5062772;28;20059;-74
2023/02/12 10:29:11;;;;;;;;;;;8.30;99.90;;;;;;5057773;28;22950;-73
2023/02/12 10:31:40;;;;;;;;;;;8.20;99.90;;;;;;5059486;28;19924;-72
2023/02/12 10:34:13;;;;;;;;;;;8.30;99.90;;;;;;5069574;28;19934;-74
2023/02/12 10:36:42;;;;;;;;;;;8.30;99.90;;;;;;5067687;28;19925;-72
2023/02/12 10:39:14;;;;;;;;;;;8.30;99.90;;;;;;5068140;28;19924;-73
2023/02/12 10:41:43;;;;;;;;;;;8.30;99.90;;;;;;5065782;28;20223;-72
2023/02/12 10:44:10;;;;;;;;;;;8.30;99.90;;;;;;5067012;28;19924;-73
2023/02/12 10:46:37;;;;;;;;;;;8.30;99.90;;;;;;5062427;28;19928;-73
2023/02/12 10:49:05;;;;;;;;;;;8.30;99.90;;;;;;5066646;28;19933;-74
2023/02/12 10:51:39;;;;;;;;;;;8.30;99.90;;;;;;5063044;28;20379;-73
2023/02/12 10:54:24;;;;;;;;;;;8.30;99.90;;;;;;5067335;28;19930;-72
2023/02/12 10:56:52;;;;;;;;;;;8.40;99.90;;;;;;5059944;28;19928;-72
2023/02/12 10:59:23;;;;;;;;;;;8.50;99.90;;;;;;5066226;28;19977;-72
2023/02/12 11:01:49;;;;;;;;;;;8.60;99.90;;;;;;5058974;28;20024;-72
2023/02/12 11:04:20;;;;;;;;;;;8.60;99.90;;;;;;5068519;28;19931;-73
2023/02/12 11:06:56;;;;;;;;;;;8.50;99.90;;;;;;5062283;28;19967;-73
2023/02/12 11:09:27;;;;;;;;;;;8.60;99.90;;;;;;5058656;28;19929;-73
2023/02/12 11:11:55;;;;;;;;;;;8.70;99.90;;;;;;5062532;28;19996;-73
2023/02/12 11:14:22;;;;;;;;;;;8.60;99.90;;;;;;5058873;28;19960;-73
2023/02/12 11:16:52;;;;;;;;;;;8.60;99.90;;;;;;5068544;28;19924;-74
2023/02/12 11:19:20;;;;;;;;;;;8.50;99.90;;;;;;5071234;28;19933;-74
2023/02/12 11:21:47;;;;;;;;;;;8.60;99.90;;;;;;5062054;28;19925;-74
2023/02/12 11:24:29;;;;;;;;;;;8.60;99.90;;;;;;5063689;28;19999;-73
2023/02/12 11:27:20;;;;;;;;;;;8.40;99.90;;;;;;5066895;28;19985;-74
2023/02/12 11:30:04;;;;;;;;;;;8.40;99.90;;;;;;5052924;28;19935;-74
2023/02/12 11:32:30;;;;;;;;;;;8.50;99.90;;;;;;5058392;28;20401;-75
2023/02/12 11:35:04;;;;;;;;;;;8.60;99.90;;;;;;5066484;28;20356;-74
2023/02/12 11:37:34;;;;;;;;;;;8.70;99.90;;;;;;5064072;28;20003;-75
2023/02/12 11:40:01;;;;;;;;;;;8.80;99.90;;;;;;5064275;28;19924;-74
2023/02/12 11:42:29;;;;;;;;;;;8.70;99.90;;;;;;5063520;28;19955;-74
2023/02/12 11:44:59;;;;;;;;;;;8.70;99.90;;;;;;5062691;28;20035;-74
2023/02/12 11:47:27;;;;;;;;;;;8.80;99.90;;;;;;5067611;28;19978;-74
2023/02/12 11:49:54;;;;;;;;;;;8.80;99.90;;;;;;5073151;28;19927;-74
2023/02/12 11:52:22;;;;;;;;;;;8.70;99.90;;;;;;5070881;28;19924;-73
2023/02/12 11:54:49;;;;;;;;;;;8.80;99.90;;;;;;5064996;28;20039;-74
2023/02/12 11:57:35;;;;;;;;;;;8.80;99.90;;;;;;5064830;28;19978;-73
2023/02/12 12:00:04;;;;;;;;;;;8.80;99.90;;;;;;5055347;28;20360;-73
2023/02/12 12:02:34;;;;;;;;;;;8.80;99.90;;;;;;5064069;28;20059;-74
2023/02/12 12:05:06;;;;;;;;;;;8.70;99.90;;;;;;5061694;28;19936;-73
2023/02/12 12:07:35;;;;;;;;;;;8.70;99.90;;;;;;5065961;28;19966;-75
2023/02/12 12:10:05;;;;;;;;;;;8.70;99.90;;;;;;5063746;28;19956;-75
2023/02/12 12:12:37;;;;;;;;;;;8.80;99.90;;;;;;5070879;28;19925;-75
2023/02/12 12:20:41;;;;;;;;;;;8.70;99.90;;;;;;5067521;28;19932;-75
2023/02/12 12:23:11;;;;;;;;;;;8.50;99.90;;;;;;5066578;28;19931;-77
2023/02/12 12:25:46;;;;;;;;;;;8.60;99.90;;;;;;5068237;28;19924;-74
2023/02/12 12:28:23;;;;;;;;;;;8.70;99.90;;;;;;5069557;28;19976;-73
2023/02/12 12:30:59;;;;;;;;;;;8.60;99.90;;;;;;5062048;28;20169;-74
2023/02/12 12:33:38;;;;;;;;;;;8.70;99.90;;;;;;5069320;28;20007;-73
2023/02/12 12:36:31;;;;;;;;;;;8.70;99.90;;;;;;5064835;28;20298;-74
2023/02/12 12:39:03;;;;;;;;;;;8.70;99.90;;;;;;5068741;28;19925;-75
2023/02/12 12:41:37;;;;;;;;;;;8.70;99.90;;;;;;5062359;28;19942;-75
2023/02/12 12:44:09;;;;;;;;;;;8.70;99.90;;;;;;5065212;28;20429;-74
2023/02/12 12:46:44;;;;;;;;;;;8.80;99.90;;;;;;5066317;28;19928;-72
2023/02/12 12:49:19;;;;;;;;;;;9.00;99.90;;;;;;5065146;28;20009;-74
2023/02/12 12:51:58;;;;;;;;;;;8.80;99.90;;;;;;5070025;28;19931;-74
2023/02/12 12:54:32;;;;;;;;;;;8.70;99.90;;;;;;5069803;28;20413;-75
2023/02/12 12:57:05;;;;;;;;;;;8.70;99.90;;;;;;5063772;28;19931;-75
2023/02/12 12:59:50;;;;;;;;;;;8.80;99.90;;;;;;5059022;28;19941;-72
2023/02/12 13:02:37;;;;;;;;;;;8.70;99.90;;;;;;5067554;28;19924;-73
2023/02/12 13:05:28;;;;;;;;;;;8.70;99.90;;;;;;5065770;28;19936;-74
2023/02/12 13:07:58;;;;;;;;;;;8.70;99.90;;;;;;5007358;28;20011;-74
2023/02/12 13:10:31;;;;;;;;;;;8.70;99.90;;;;;;5068780;28;19932;-74
2023/02/12 13:13:02;;;;;;;;;;;8.60;99.90;;;;;;5067974;28;19952;-72
2023/02/12 13:15:33;;;;;;;;;;;8.60;99.90;;;;;;5070014;28;19928;-72
2023/02/12 13:18:04;;;;;;;;;;;8.60;99.90;;;;;;5070307;28;19933;-72
2023/02/12 13:20:35;;;;;;;;;;;8.50;99.90;;;;;;5066898;28;19931;-73
2023/02/12 13:23:04;;;;;;;;;;;8.50;99.90;;;;;;5066142;28;19931;-73
2023/02/12 13:25:36;;;;;;;;;;;8.50;99.90;;;;;;5066618;28;19939;-72
2023/02/12 13:28:03;;;;;;;;;;;8.60;99.90;;;;;;5068724;28;19971;-71
2023/02/12 13:30:31;;;;;;;;;;;8.60;99.90;;;;;;5063242;28;20021;-72
2023/02/12 13:33:04;;;;;;;;;;;8.60;99.90;;;;;;5065847;28;19924;-73
2023/02/12 13:35:32;;;;;;;;;;;8.50;99.90;;;;;;5067148;28;19932;-73
2023/02/12 13:38:00;;;;;;;;;;;8.60;99.90;;;;;;5064096;28;20023;-73
2023/02/12 13:40:27;;;;;;;;;;;8.60;99.90;;;;;;5067060;28;19930;-73
2023/02/12 13:42:57;;;;;;;;;;;8.50;99.90;;;;;;5062965;28;20011;-73
2023/02/12 13:45:29;;;;;;;;;;;8.50;99.90;;;;;;5065579;28;20306;-73
2023/02/12 13:48:03;;;;;;;;;;;8.50;99.90;;;;;;5067907;28;20390;-74
2023/02/12 13:50:36;;;;;;;;;;;8.50;99.90;;;;;;5068401;28;20019;-75
2023/02/12 13:53:09;;;;;;;;;;;8.60;99.90;;;;;;5059072;28;20441;-73
2023/02/12 13:55:38;;;;;;;;;;;8.50;99.90;;;;;;5060175;28;20294;-74
2023/02/12 13:58:23;;;;;;;;;;;8.50;99.90;;;;;;5070314;28;20042;-73
2023/02/12 14:00:58;;;;;;;;;;;8.40;99.90;;;;;;5063322;28;19932;-74
2023/02/12 14:03:26;;;;;;;;;;;8.50;99.90;;;;;;5064947;28;19925;-73
2023/02/12 14:08:48;;;;;;;;;;;8.50;99.90;;;;;;5117471;27;19922;-74
2023/02/12 14:11:16;;;;;;;;;;;8.50;99.90;;;;;;5116373;27;20425;-74
2023/02/12 14:13:48;;;;;;;;;;;8.50;99.90;;;;;;5111668;27;20375;-75
2023/02/12 14:16:19;;;;;;;;;;;8.40;99.90;;;;;;5116888;28;19935;-74
2023/02/12 14:18:46;;;;;;;;;;;8.50;99.90;;;;;;5118684;27;19924;-74
2023/02/12 14:21:31;;;;;;;;;;;8.50;99.90;;;;;;5115054;28;20039;-75
2023/02/12 14:24:19;;;;;;;;;;;8.50;99.90;;;;;;5098823;27;19932;-75
2023/02/12 14:26:45;;;;;;;;;;;8.50;99.90;;;;;;5116395;27;19942;-74
2023/02/12 14:29:19;;;;;;;;;;;8.40;99.90;;;;;;5111783;27;19938;-74
2023/02/12 14:31:46;;;;;;;;;;;8.40;99.90;;;;;;5116838;27;19970;-73
2023/02/12 14:34:46;;;;;;;;;;;8.50;99.90;;;;;;5113816;27;20290;-74
2023/02/12 14:37:33;;;;;;;;;;;8.40;99.90;;;;;;5112504;27;19924;-73
2023/02/12 14:40:26;;;;;;;;;;;8.40;99.90;;;;;;5113807;27;19977;-74
2023/02/12 14:42:56;;;;;;;;;;;8.40;99.90;;;;;;5070009;28;19924;-74
2023/02/12 14:45:30;;;;;;;;;;;8.40;99.90;;;;;;5111573;27;19950;-73
2023/02/12 14:47:57;;;;;;;;;;;8.40;99.90;;;;;;5124967;27;19974;-74
2023/02/12 14:50:30;;;;;;;;;;;8.40;99.90;;;;;;5119408;27;20026;-73
2023/02/12 14:53:04;;;;;;;;;;;8.40;99.90;;;;;;5112556;28;20002;-72
2023/02/12 14:55:33;;;;;;;;;;;8.40;99.90;;;;;;5117967;27;19924;-74